sensor_id;sensor_type;location;lat;lon;timestamp;P1;durP1;ratioP1;P2;durP2;ratioP2
23394;SDS011;11870;53.084;18.206;2024-03-08T00:00:29;83.55;;;32.88;;
23394;SDS011;11870;53.084;18.206;2024-03-08T00:03:18;83.30;;;33.55;;
23394;SDS011;11870;53.084;18.206;2024-03-08T00:05:45;89.68;;;35.40;;
23394;SDS011;11870;53.084;18.206;2024-03-08T00:08:11;86.38;;;35.67;;
23394;SDS011;11870;53.084;18.206;2024-03-08T00:10:38;81.22;;;32.35;;
23394;SDS011;11870;53.084;18.206;2024-03-08T00:13:05;78.22;;;31.02;;
23394;SDS011;11870;53.084;18.206;2024-03-08T00:15:32;82.78;;;31.98;;
23394;SDS011;11870;53.084;18.206;2024-03-08T00:17:58;84.95;;;34.63;;
23394;SDS011;11870;53.084;18.206;2024-03-08T00:20:25;80.70;;;34.42;;
23394;SDS011;11870;53.084;18.206;2024-03-08T00:22:52;80.30;;;33.03;;
23394;SDS011;11870;53.084;18.206;2024-03-08T00:25:18;80.78;;;32.58;;
23394;SDS011;11870;53.084;18.206;2024-03-08T00:27:46;73.25;;;30.42;;
23394;SDS011;11870;53.084;18.206;2024-03-08T00:30:14;87.72;;;32.97;;
23394;SDS011;11870;53.084;18.206;2024-03-08T00:32:41;85.13;;;32.75;;
23394;SDS011;11870;53.084;18.206;2024-03-08T00:35:08;80.15;;;35.30;;
23394;SDS011;11870;53.084;18.206;2024-03-08T00:37:35;90.10;;;36.95;;
23394;SDS011;11870;53.084;18.206;2024-03-08T00:40:02;87.65;;;35.85;;
23394;SDS011;11870;53.084;18.206;2024-03-08T00:42:29;81.72;;;33.92;;
23394;SDS011;11870;53.084;18.206;2024-03-08T00:44:55;73.60;;;30.90;;
23394;SDS011;11870;53.084;18.206;2024-03-08T00:47:23;74.53;;;30.30;;
23394;SDS011;11870;53.084;18.206;2024-03-08T00:49:51;75.22;;;30.38;;
23394;SDS011;11870;53.084;18.206;2024-03-08T00:52:18;68.07;;;29.65;;
23394;SDS011;11870;53.084;18.206;2024-03-08T00:54:45;78.07;;;29.58;;
23394;SDS011;11870;53.084;18.206;2024-03-08T00:57:12;80.97;;;29.23;;
23394;SDS011;11870;53.084;18.206;2024-03-08T00:59:39;80.40;;;31.65;;
23394;SDS011;11870;53.084;18.206;2024-03-08T01:02:05;84.47;;;32.58;;
23394;SDS011;11870;53.084;18.206;2024-03-08T01:04:32;90.70;;;34.83;;
23394;SDS011;11870;53.084;18.206;2024-03-08T01:06:59;98.13;;;39.25;;
23394;SDS011;11870;53.084;18.206;2024-03-08T01:09:25;105.57;;;41.88;;
23394;SDS011;11870;53.084;18.206;2024-03-08T01:11:53;87.28;;;33.83;;
23394;SDS011;11870;53.084;18.206;2024-03-08T01:14:20;77.47;;;31.13;;
23394;SDS011;11870;53.084;18.206;2024-03-08T01:16:51;79.22;;;31.30;;
23394;SDS011;11870;53.084;18.206;2024-03-08T01:19:18;99.28;;;38.92;;
23394;SDS011;11870;53.084;18.206;2024-03-08T01:21:45;87.57;;;36.83;;
23394;SDS011;11870;53.084;18.206;2024-03-08T01:24:12;91.38;;;35.22;;
23394;SDS011;11870;53.084;18.206;2024-03-08T01:26:41;108.30;;;38.47;;
23394;SDS011;11870;53.084;18.206;2024-03-08T01:29:08;103.45;;;38.45;;
23394;SDS011;11870;53.084;18.206;2024-03-08T01:31:35;116.53;;;40.17;;
23394;SDS011;11870;53.084;18.206;2024-03-08T01:34:04;128.45;;;43.47;;
23394;SDS011;11870;53.084;18.206;2024-03-08T01:36:31;142.70;;;47.58;;
23394;SDS011;11870;53.084;18.206;2024-03-08T01:38:57;136.32;;;47.72;;
23394;SDS011;11870;53.084;18.206;2024-03-08T01:41:24;156.32;;;54.22;;
23394;SDS011;11870;53.084;18.206;2024-03-08T01:43:53;152.35;;;50.60;;
23394;SDS011;11870;53.084;18.206;2024-03-08T01:46:20;121.90;;;44.85;;
23394;SDS011;11870;53.084;18.206;2024-03-08T01:48:47;132.77;;;43.97;;
23394;SDS011;11870;53.084;18.206;2024-03-08T01:51:14;94.85;;;34.67;;
23394;SDS011;11870;53.084;18.206;2024-03-08T01:53:41;101.05;;;36.97;;
23394;SDS011;11870;53.084;18.206;2024-03-08T01:56:10;100.60;;;35.10;;
23394;SDS011;11870;53.084;18.206;2024-03-08T01:58:38;88.15;;;32.88;;
23394;SDS011;11870;53.084;18.206;2024-03-08T02:01:05;82.30;;;29.65;;
23394;SDS011;11870;53.084;18.206;2024-03-08T02:03:34;71.43;;;28.20;;
23394;SDS011;11870;53.084;18.206;2024-03-08T02:06:01;68.30;;;26.88;;
23394;SDS011;11870;53.084;18.206;2024-03-08T02:08:27;66.65;;;26.27;;
23394;SDS011;11870;53.084;18.206;2024-03-08T02:10:54;70.25;;;26.00;;
23394;SDS011;11870;53.084;18.206;2024-03-08T02:13:21;64.18;;;26.10;;
23394;SDS011;11870;53.084;18.206;2024-03-08T02:15:58;70.43;;;26.40;;
23394;SDS011;11870;53.084;18.206;2024-03-08T02:18:28;72.22;;;25.85;;
23394;SDS011;11870;53.084;18.206;2024-03-08T02:20:55;64.43;;;23.98;;
23394;SDS011;11870;53.084;18.206;2024-03-08T02:23:23;55.50;;;22.30;;
23394;SDS011;11870;53.084;18.206;2024-03-08T02:25:53;52.50;;;21.95;;
23394;SDS011;11870;53.084;18.206;2024-03-08T02:28:22;50.30;;;22.33;;
23394;SDS011;11870;53.084;18.206;2024-03-08T02:30:49;51.13;;;20.45;;
23394;SDS011;11870;53.084;18.206;2024-03-08T02:33:22;49.75;;;19.98;;
23394;SDS011;11870;53.084;18.206;2024-03-08T02:35:49;44.15;;;19.20;;
23394;SDS011;11870;53.084;18.206;2024-03-08T02:38:22;48.72;;;19.80;;
23394;SDS011;11870;53.084;18.206;2024-03-08T02:40:51;52.22;;;20.70;;
23394;SDS011;11870;53.084;18.206;2024-03-08T02:43:18;52.70;;;19.92;;
23394;SDS011;11870;53.084;18.206;2024-03-08T02:45:45;50.92;;;20.77;;
23394;SDS011;11870;53.084;18.206;2024-03-08T02:48:13;46.45;;;19.33;;
23394;SDS011;11870;53.084;18.206;2024-03-08T02:50:39;48.72;;;19.48;;
23394;SDS011;11870;53.084;18.206;2024-03-08T02:53:08;52.45;;;20.52;;
23394;SDS011;11870;53.084;18.206;2024-03-08T02:55:35;46.40;;;19.77;;
23394;SDS011;11870;53.084;18.206;2024-03-08T02:58:02;43.85;;;19.45;;
23394;SDS011;11870;53.084;18.206;2024-03-08T03:00:29;50.80;;;20.40;;
23394;SDS011;11870;53.084;18.206;2024-03-08T03:02:57;49.90;;;20.13;;
23394;SDS011;11870;53.084;18.206;2024-03-08T03:05:23;45.88;;;19.95;;
23394;SDS011;11870;53.084;18.206;2024-03-08T03:07:51;49.72;;;21.48;;
23394;SDS011;11870;53.084;18.206;2024-03-08T03:10:18;49.42;;;20.77;;
23394;SDS011;11870;53.084;18.206;2024-03-08T03:12:45;50.53;;;21.85;;
23394;SDS011;11870;53.084;18.206;2024-03-08T03:15:13;53.78;;;22.00;;
23394;SDS011;11870;53.084;18.206;2024-03-08T03:17:40;53.47;;;22.58;;
23394;SDS011;11870;53.084;18.206;2024-03-08T03:20:07;58.63;;;24.08;;
23394;SDS011;11870;53.084;18.206;2024-03-08T03:22:40;51.75;;;22.60;;
23394;SDS011;11870;53.084;18.206;2024-03-08T03:25:07;60.67;;;25.13;;
23394;SDS011;11870;53.084;18.206;2024-03-08T03:27:35;60.05;;;26.17;;
23394;SDS011;11870;53.084;18.206;2024-03-08T03:30:02;57.72;;;25.05;;
23394;SDS011;11870;53.084;18.206;2024-03-08T03:32:47;62.88;;;24.73;;
23394;SDS011;11870;53.084;18.206;2024-03-08T03:35:14;56.45;;;23.55;;
23394;SDS011;11870;53.084;18.206;2024-03-08T03:37:41;56.47;;;23.80;;
23394;SDS011;11870;53.084;18.206;2024-03-08T03:40:16;56.47;;;24.25;;
23394;SDS011;11870;53.084;18.206;2024-03-08T03:42:46;62.63;;;24.48;;
23394;SDS011;11870;53.084;18.206;2024-03-08T03:45:12;73.05;;;24.80;;
23394;SDS011;11870;53.084;18.206;2024-03-08T03:47:42;60.72;;;23.52;;
23394;SDS011;11870;53.084;18.206;2024-03-08T03:50:08;60.72;;;22.25;;
23394;SDS011;11870;53.084;18.206;2024-03-08T03:52:35;58.50;;;22.35;;
23394;SDS011;11870;53.084;18.206;2024-03-08T03:55:02;55.47;;;21.58;;
23394;SDS011;11870;53.084;18.206;2024-03-08T03:57:30;56.10;;;21.33;;
23394;SDS011;11870;53.084;18.206;2024-03-08T03:59:57;56.30;;;20.92;;
23394;SDS011;11870;53.084;18.206;2024-03-08T04:02:24;57.92;;;21.85;;
23394;SDS011;11870;53.084;18.206;2024-03-08T04:04:52;53.30;;;21.75;;
23394;SDS011;11870;53.084;18.206;2024-03-08T04:07:21;56.28;;;22.58;;
23394;SDS011;11870;53.084;18.206;2024-03-08T04:09:47;51.45;;;21.73;;
23394;SDS011;11870;53.084;18.206;2024-03-08T04:12:15;53.70;;;20.88;;
23394;SDS011;11870;53.084;18.206;2024-03-08T04:14:41;53.95;;;19.80;;
23394;SDS011;11870;53.084;18.206;2024-03-08T04:17:08;48.75;;;19.23;;
23394;SDS011;11870;53.084;18.206;2024-03-08T04:19:36;44.78;;;19.25;;
23394;SDS011;11870;53.084;18.206;2024-03-08T04:22:03;50.72;;;19.10;;
23394;SDS011;11870;53.084;18.206;2024-03-08T04:24:29;44.78;;;17.52;;
23394;SDS011;11870;53.084;18.206;2024-03-08T04:26:56;48.17;;;18.70;;
23394;SDS011;11870;53.084;18.206;2024-03-08T04:29:24;46.70;;;18.35;;
23394;SDS011;11870;53.084;18.206;2024-03-08T04:31:51;44.53;;;18.95;;
23394;SDS011;11870;53.084;18.206;2024-03-08T04:34:20;42.75;;;18.73;;
23394;SDS011;11870;53.084;18.206;2024-03-08T04:36:47;44.60;;;17.50;;
23394;SDS011;11870;53.084;18.206;2024-03-08T04:39:14;42.55;;;17.02;;
23394;SDS011;11870;53.084;18.206;2024-03-08T04:41:44;40.47;;;17.27;;
23394;SDS011;11870;53.084;18.206;2024-03-08T04:44:11;40.35;;;17.80;;
23394;SDS011;11870;53.084;18.206;2024-03-08T04:46:38;52.95;;;20.05;;
23394;SDS011;11870;53.084;18.206;2024-03-08T04:49:05;44.92;;;18.83;;
23394;SDS011;11870;53.084;18.206;2024-03-08T04:51:33;42.67;;;19.05;;
23394;SDS011;11870;53.084;18.206;2024-03-08T04:53:59;43.50;;;19.33;;
23394;SDS011;11870;53.084;18.206;2024-03-08T04:56:26;44.83;;;19.63;;
23394;SDS011;11870;53.084;18.206;2024-03-08T04:58:52;41.17;;;18.50;;
23394;SDS011;11870;53.084;18.206;2024-03-08T05:01:19;44.83;;;18.40;;
23394;SDS011;11870;53.084;18.206;2024-03-08T05:03:45;45.90;;;18.60;;
23394;SDS011;11870;53.084;18.206;2024-03-08T05:06:18;41.95;;;17.63;;
23394;SDS011;11870;53.084;18.206;2024-03-08T05:08:46;41.83;;;18.67;;
23394;SDS011;11870;53.084;18.206;2024-03-08T05:11:12;43.03;;;18.05;;
23394;SDS011;11870;53.084;18.206;2024-03-08T05:13:40;44.75;;;19.25;;
23394;SDS011;11870;53.084;18.206;2024-03-08T05:16:09;43.08;;;19.10;;
23394;SDS011;11870;53.084;18.206;2024-03-08T05:18:36;44.92;;;18.50;;
23394;SDS011;11870;53.084;18.206;2024-03-08T05:21:02;36.72;;;17.63;;
23394;SDS011;11870;53.084;18.206;2024-03-08T05:23:29;45.60;;;18.75;;
23394;SDS011;11870;53.084;18.206;2024-03-08T05:25:56;54.35;;;20.58;;
23394;SDS011;11870;53.084;18.206;2024-03-08T05:28:22;58.03;;;20.70;;
23394;SDS011;11870;53.084;18.206;2024-03-08T05:30:49;56.28;;;21.30;;
23394;SDS011;11870;53.084;18.206;2024-03-08T05:33:15;57.50;;;19.65;;
23394;SDS011;11870;53.084;18.206;2024-03-08T05:35:42;58.92;;;20.48;;
23394;SDS011;11870;53.084;18.206;2024-03-08T05:38:08;58.85;;;21.13;;
23394;SDS011;11870;53.084;18.206;2024-03-08T05:40:35;111.85;;;31.77;;
23394;SDS011;11870;53.084;18.206;2024-03-08T05:43:02;107.00;;;33.03;;
23394;SDS011;11870;53.084;18.206;2024-03-08T05:45:28;98.43;;;29.75;;
23394;SDS011;11870;53.084;18.206;2024-03-08T05:47:54;73.05;;;26.20;;
23394;SDS011;11870;53.084;18.206;2024-03-08T05:50:22;71.72;;;25.95;;
23394;SDS011;11870;53.084;18.206;2024-03-08T05:52:48;80.45;;;30.35;;
23394;SDS011;11870;53.084;18.206;2024-03-08T05:55:15;65.10;;;26.42;;
23394;SDS011;11870;53.084;18.206;2024-03-08T05:57:41;62.15;;;25.13;;
23394;SDS011;11870;53.084;18.206;2024-03-08T06:00:08;69.07;;;25.95;;
23394;SDS011;11870;53.084;18.206;2024-03-08T06:02:41;63.92;;;24.73;;
23394;SDS011;11870;53.084;18.206;2024-03-08T06:05:10;57.20;;;24.27;;
23394;SDS011;11870;53.084;18.206;2024-03-08T06:07:37;70.72;;;26.85;;
23394;SDS011;11870;53.084;18.206;2024-03-08T06:10:09;144.57;;;55.55;;
23394;SDS011;11870;53.084;18.206;2024-03-08T06:12:36;130.70;;;53.03;;
23394;SDS011;11870;53.084;18.206;2024-03-08T06:15:07;84.40;;;31.85;;
23394;SDS011;11870;53.084;18.206;2024-03-08T06:17:40;72.30;;;26.27;;
23394;SDS011;11870;53.084;18.206;2024-03-08T06:20:07;75.75;;;27.83;;
23394;SDS011;11870;53.084;18.206;2024-03-08T06:22:39;86.40;;;31.15;;
23394;SDS011;11870;53.084;18.206;2024-03-08T06:25:10;91.28;;;31.92;;
23394;SDS011;11870;53.084;18.206;2024-03-08T06:27:42;90.18;;;32.10;;
23394;SDS011;11870;53.084;18.206;2024-03-08T06:30:09;90.60;;;29.23;;
23394;SDS011;11870;53.084;18.206;2024-03-08T06:32:36;99.25;;;34.08;;
23394;SDS011;11870;53.084;18.206;2024-03-08T06:35:03;107.18;;;35.08;;
23394;SDS011;11870;53.084;18.206;2024-03-08T06:37:32;101.72;;;34.80;;
23394;SDS011;11870;53.084;18.206;2024-03-08T06:39:58;119.28;;;39.17;;
23394;SDS011;11870;53.084;18.206;2024-03-08T06:42:29;142.18;;;48.90;;
23394;SDS011;11870;53.084;18.206;2024-03-08T06:45:01;148.10;;;51.45;;
23394;SDS011;11870;53.084;18.206;2024-03-08T06:47:31;144.40;;;47.35;;
23394;SDS011;11870;53.084;18.206;2024-03-08T06:49:58;125.55;;;41.75;;
23394;SDS011;11870;53.084;18.206;2024-03-08T06:52:25;121.47;;;42.42;;
23394;SDS011;11870;53.084;18.206;2024-03-08T06:54:51;116.43;;;41.22;;
23394;SDS011;11870;53.084;18.206;2024-03-08T06:57:18;145.07;;;45.28;;
23394;SDS011;11870;53.084;18.206;2024-03-08T06:59:48;141.88;;;46.03;;
23394;SDS011;11870;53.084;18.206;2024-03-08T07:02:14;132.20;;;46.90;;
23394;SDS011;11870;53.084;18.206;2024-03-08T07:04:40;144.13;;;50.90;;
23394;SDS011;11870;53.084;18.206;2024-03-08T07:07:07;151.73;;;51.70;;
23394;SDS011;11870;53.084;18.206;2024-03-08T07:09:36;149.07;;;49.92;;
23394;SDS011;11870;53.084;18.206;2024-03-08T07:12:03;145.73;;;53.55;;
23394;SDS011;11870;53.084;18.206;2024-03-08T07:14:31;146.25;;;50.25;;
23394;SDS011;11870;53.084;18.206;2024-03-08T07:17:02;124.65;;;45.45;;
23394;SDS011;11870;53.084;18.206;2024-03-08T07:19:29;120.10;;;46.03;;
23394;SDS011;11870;53.084;18.206;2024-03-08T07:21:55;111.10;;;42.58;;
23394;SDS011;11870;53.084;18.206;2024-03-08T07:24:22;97.78;;;38.00;;
23394;SDS011;11870;53.084;18.206;2024-03-08T07:27:06;84.93;;;33.75;;
23394;SDS011;11870;53.084;18.206;2024-03-08T07:29:36;76.88;;;31.45;;
23394;SDS011;11870;53.084;18.206;2024-03-08T07:32:02;67.38;;;29.08;;
23394;SDS011;11870;53.084;18.206;2024-03-08T07:34:49;58.78;;;26.25;;
23394;SDS011;11870;53.084;18.206;2024-03-08T07:37:16;63.45;;;26.55;;
23394;SDS011;11870;53.084;18.206;2024-03-08T07:39:43;51.42;;;24.77;;
23394;SDS011;11870;53.084;18.206;2024-03-08T07:42:12;53.72;;;24.08;;
23394;SDS011;11870;53.084;18.206;2024-03-08T07:44:43;52.60;;;24.80;;
23394;SDS011;11870;53.084;18.206;2024-03-08T07:47:11;49.78;;;23.48;;
23394;SDS011;11870;53.084;18.206;2024-03-08T07:49:38;47.03;;;22.85;;
23394;SDS011;11870;53.084;18.206;2024-03-08T07:52:04;45.55;;;22.55;;
23394;SDS011;11870;53.084;18.206;2024-03-08T07:54:33;44.97;;;23.02;;
23394;SDS011;11870;53.084;18.206;2024-03-08T07:57:00;45.67;;;23.13;;
23394;SDS011;11870;53.084;18.206;2024-03-08T07:59:28;40.25;;;22.35;;
23394;SDS011;11870;53.084;18.206;2024-03-08T08:01:55;45.38;;;22.17;;
23394;SDS011;11870;53.084;18.206;2024-03-08T08:04:23;39.92;;;22.08;;
23394;SDS011;11870;53.084;18.206;2024-03-08T08:06:50;38.22;;;22.20;;
23394;SDS011;11870;53.084;18.206;2024-03-08T08:09:17;34.85;;;20.70;;
23394;SDS011;11870;53.084;18.206;2024-03-08T08:11:56;36.03;;;19.83;;
23394;SDS011;11870;53.084;18.206;2024-03-08T08:14:22;37.00;;;21.48;;
23394;SDS011;11870;53.084;18.206;2024-03-08T08:16:48;34.97;;;20.45;;
23394;SDS011;11870;53.084;18.206;2024-03-08T08:19:26;31.85;;;20.05;;
23394;SDS011;11870;53.084;18.206;2024-03-08T08:21:53;27.75;;;19.42;;
23394;SDS011;11870;53.084;18.206;2024-03-08T08:24:23;32.35;;;20.35;;
23394;SDS011;11870;53.084;18.206;2024-03-08T08:26:50;31.75;;;20.08;;
23394;SDS011;11870;53.084;18.206;2024-03-08T08:29:18;28.77;;;19.60;;
23394;SDS011;11870;53.084;18.206;2024-03-08T08:31:46;32.70;;;19.63;;
23394;SDS011;11870;53.084;18.206;2024-03-08T08:34:21;33.42;;;20.77;;
23394;SDS011;11870;53.084;18.206;2024-03-08T08:36:49;31.55;;;20.20;;
23394;SDS011;11870;53.084;18.206;2024-03-08T08:39:15;27.75;;;19.10;;
23394;SDS011;11870;53.084;18.206;2024-03-08T08:41:42;31.50;;;19.65;;
23394;SDS011;11870;53.084;18.206;2024-03-08T08:44:09;32.65;;;20.13;;
23394;SDS011;11870;53.084;18.206;2024-03-08T08:46:37;32.20;;;19.98;;
23394;SDS011;11870;53.084;18.206;2024-03-08T08:49:04;29.88;;;19.73;;
23394;SDS011;11870;53.084;18.206;2024-03-08T08:51:39;31.35;;;20.88;;
23394;SDS011;11870;53.084;18.206;2024-03-08T08:54:05;30.67;;;20.30;;
23394;SDS011;11870;53.084;18.206;2024-03-08T08:56:35;32.75;;;21.77;;
23394;SDS011;11870;53.084;18.206;2024-03-08T08:59:01;32.70;;;21.08;;
23394;SDS011;11870;53.084;18.206;2024-03-08T09:01:30;29.05;;;20.05;;
23394;SDS011;11870;53.084;18.206;2024-03-08T09:03:56;32.97;;;20.58;;
23394;SDS011;11870;53.084;18.206;2024-03-08T09:06:23;30.35;;;19.98;;
23394;SDS011;11870;53.084;18.206;2024-03-08T09:08:50;28.02;;;18.65;;
23394;SDS011;11870;53.084;18.206;2024-03-08T09:11:16;30.55;;;19.33;;
23394;SDS011;11870;53.084;18.206;2024-03-08T09:13:46;35.40;;;21.15;;
23394;SDS011;11870;53.084;18.206;2024-03-08T09:16:14;46.83;;;26.75;;
23394;SDS011;11870;53.084;18.206;2024-03-08T09:18:41;34.55;;;23.17;;
23394;SDS011;11870;53.084;18.206;2024-03-08T09:21:08;28.98;;;19.05;;
23394;SDS011;11870;53.084;18.206;2024-03-08T09:23:38;28.10;;;19.40;;
23394;SDS011;11870;53.084;18.206;2024-03-08T09:26:06;26.77;;;19.10;;
23394;SDS011;11870;53.084;18.206;2024-03-08T09:28:35;24.95;;;17.52;;
23394;SDS011;11870;53.084;18.206;2024-03-08T09:31:01;23.85;;;16.63;;
23394;SDS011;11870;53.084;18.206;2024-03-08T09:33:28;23.48;;;17.27;;
23394;SDS011;11870;53.084;18.206;2024-03-08T09:35:54;24.60;;;16.85;;
23394;SDS011;11870;53.084;18.206;2024-03-08T09:38:23;25.25;;;16.40;;
23394;SDS011;11870;53.084;18.206;2024-03-08T09:40:50;27.65;;;18.45;;
23394;SDS011;11870;53.084;18.206;2024-03-08T09:43:18;24.70;;;17.15;;
23394;SDS011;11870;53.084;18.206;2024-03-08T09:45:45;25.42;;;18.58;;
23394;SDS011;11870;53.084;18.206;2024-03-08T09:48:18;25.65;;;18.42;;
23394;SDS011;11870;53.084;18.206;2024-03-08T09:50:46;26.38;;;18.20;;
23394;SDS011;11870;53.084;18.206;2024-03-08T09:53:22;26.30;;;17.25;;
23394;SDS011;11870;53.084;18.206;2024-03-08T09:55:49;27.50;;;16.75;;
23394;SDS011;11870;53.084;18.206;2024-03-08T09:58:16;23.33;;;15.85;;
23394;SDS011;11870;53.084;18.206;2024-03-08T10:01:19;25.92;;;17.77;;
23394;SDS011;11870;53.084;18.206;2024-03-08T10:03:47;24.27;;;17.45;;
23394;SDS011;11870;53.084;18.206;2024-03-08T10:06:14;23.75;;;17.48;;
23394;SDS011;11870;53.084;18.206;2024-03-08T10:08:41;23.85;;;17.30;;
23394;SDS011;11870;53.084;18.206;2024-03-08T10:11:09;25.27;;;17.98;;
23394;SDS011;11870;53.084;18.206;2024-03-08T10:13:37;22.50;;;16.98;;
23394;SDS011;11870;53.084;18.206;2024-03-08T10:16:07;22.48;;;16.42;;
23394;SDS011;11870;53.084;18.206;2024-03-08T10:18:34;24.55;;;18.00;;
23394;SDS011;11870;53.084;18.206;2024-03-08T10:21:06;20.08;;;15.48;;
23394;SDS011;11870;53.084;18.206;2024-03-08T10:23:35;19.50;;;14.40;;
23394;SDS011;11870;53.084;18.206;2024-03-08T10:26:12;24.08;;;17.40;;
23394;SDS011;11870;53.084;18.206;2024-03-08T10:28:42;26.48;;;18.90;;
23394;SDS011;11870;53.084;18.206;2024-03-08T10:31:16;20.67;;;14.75;;
23394;SDS011;11870;53.084;18.206;2024-03-08T10:33:43;19.13;;;12.63;;
23394;SDS011;11870;53.084;18.206;2024-03-08T10:36:15;20.60;;;12.50;;
23394;SDS011;11870;53.084;18.206;2024-03-08T10:38:53;20.58;;;12.90;;
23394;SDS011;11870;53.084;18.206;2024-03-08T10:41:22;17.65;;;10.25;;
23394;SDS011;11870;53.084;18.206;2024-03-08T10:46:33;20.20;;;11.65;;
23394;SDS011;11870;53.084;18.206;2024-03-08T10:49:12;16.92;;;9.32;;
23394;SDS011;11870;53.084;18.206;2024-03-08T10:51:43;19.77;;;11.70;;
23394;SDS011;11870;53.084;18.206;2024-03-08T10:54:12;20.15;;;9.98;;
23394;SDS011;11870;53.084;18.206;2024-03-08T10:56:47;19.08;;;10.98;;
23394;SDS011;11870;53.084;18.206;2024-03-08T10:59:18;18.98;;;10.10;;
23394;SDS011;11870;53.084;18.206;2024-03-08T11:01:54;19.10;;;9.68;;
23394;SDS011;11870;53.084;18.206;2024-03-08T11:04:22;18.13;;;9.98;;
23394;SDS011;11870;53.084;18.206;2024-03-08T11:06:50;20.98;;;10.43;;
23394;SDS011;11870;53.084;18.206;2024-03-08T11:09:28;18.60;;;9.57;;
23394;SDS011;11870;53.084;18.206;2024-03-08T11:14:56;16.55;;;9.20;;
23394;SDS011;11870;53.084;18.206;2024-03-08T11:20:00;16.13;;;7.75;;
23394;SDS011;11870;53.084;18.206;2024-03-08T11:22:33;10.60;;;6.32;;
23394;SDS011;11870;53.084;18.206;2024-03-08T11:25:08;15.48;;;8.40;;
23394;SDS011;11870;53.084;18.206;2024-03-08T11:27:52;10.07;;;5.90;;
23394;SDS011;11870;53.084;18.206;2024-03-08T11:31:22;13.98;;;7.13;;
23394;SDS011;11870;53.084;18.206;2024-03-08T11:33:44;12.43;;;6.88;;
23394;SDS011;11870;53.084;18.206;2024-03-08T11:36:21;10.70;;;5.20;;
23394;SDS011;11870;53.084;18.206;2024-03-08T11:38:51;14.88;;;5.80;;
23394;SDS011;11870;53.084;18.206;2024-03-08T11:41:23;11.40;;;5.38;;
23394;SDS011;11870;53.084;18.206;2024-03-08T11:44:05;10.05;;;5.57;;
23394;SDS011;11870;53.084;18.206;2024-03-08T11:46:39;14.77;;;5.88;;
23394;SDS011;11870;53.084;18.206;2024-03-08T11:49:31;12.25;;;6.35;;
23394;SDS011;11870;53.084;18.206;2024-03-08T11:52:22;13.35;;;6.00;;
23394;SDS011;11870;53.084;18.206;2024-03-08T11:54:59;13.55;;;7.25;;
23394;SDS011;11870;53.084;18.206;2024-03-08T11:57:26;13.10;;;7.15;;
23394;SDS011;11870;53.084;18.206;2024-03-08T12:00:04;15.75;;;8.93;;
23394;SDS011;11870;53.084;18.206;2024-03-08T12:03:02;19.70;;;8.27;;
23394;SDS011;11870;53.084;18.206;2024-03-08T12:05:35;18.25;;;9.00;;
23394;SDS011;11870;53.084;18.206;2024-03-08T12:08:02;18.35;;;8.95;;
23394;SDS011;11870;53.084;18.206;2024-03-08T12:10:35;24.70;;;10.57;;
23394;SDS011;11870;53.084;18.206;2024-03-08T12:13:08;36.22;;;13.77;;
23394;SDS011;11870;53.084;18.206;2024-03-08T12:15:44;20.17;;;10.50;;
23394;SDS011;11870;53.084;18.206;2024-03-08T12:18:37;19.25;;;9.48;;
23394;SDS011;11870;53.084;18.206;2024-03-08T12:21:15;18.98;;;10.02;;
23394;SDS011;11870;53.084;18.206;2024-03-08T12:24:07;18.33;;;9.50;;
23394;SDS011;11870;53.084;18.206;2024-03-08T12:26:36;17.02;;;8.90;;
23394;SDS011;11870;53.084;18.206;2024-03-08T12:29:24;25.42;;;10.85;;
23394;SDS011;11870;53.084;18.206;2024-03-08T12:31:57;19.90;;;10.30;;
23394;SDS011;11870;53.084;18.206;2024-03-08T12:34:39;20.77;;;10.23;;
23394;SDS011;11870;53.084;18.206;2024-03-08T12:37:05;21.80;;;10.93;;
23394;SDS011;11870;53.084;18.206;2024-03-08T12:39:32;19.35;;;11.18;;
23394;SDS011;11870;53.084;18.206;2024-03-08T12:42:00;18.35;;;9.85;;
23394;SDS011;11870;53.084;18.206;2024-03-08T12:44:27;19.40;;;10.43;;
23394;SDS011;11870;53.084;18.206;2024-03-08T12:46:54;18.88;;;10.15;;
23394;SDS011;11870;53.084;18.206;2024-03-08T12:49:20;19.45;;;10.60;;
23394;SDS011;11870;53.084;18.206;2024-03-08T12:51:50;20.55;;;11.07;;
23394;SDS011;11870;53.084;18.206;2024-03-08T12:54:18;18.85;;;9.90;;
23394;SDS011;11870;53.084;18.206;2024-03-08T12:56:48;20.70;;;9.88;;
23394;SDS011;11870;53.084;18.206;2024-03-08T12:59:17;21.80;;;10.85;;
23394;SDS011;11870;53.084;18.206;2024-03-08T13:01:43;19.58;;;10.25;;
23394;SDS011;11870;53.084;18.206;2024-03-08T13:04:10;20.10;;;10.82;;
23394;SDS011;11870;53.084;18.206;2024-03-08T13:06:37;20.35;;;10.68;;
23394;SDS011;11870;53.084;18.206;2024-03-08T13:09:03;22.55;;;10.43;;
23394;SDS011;11870;53.084;18.206;2024-03-08T13:11:30;18.42;;;9.95;;
23394;SDS011;11870;53.084;18.206;2024-03-08T13:14:04;19.52;;;10.15;;
23394;SDS011;11870;53.084;18.206;2024-03-08T13:16:30;20.83;;;11.10;;
23394;SDS011;11870;53.084;18.206;2024-03-08T13:18:57;21.30;;;11.23;;
23394;SDS011;11870;53.084;18.206;2024-03-08T13:21:24;20.58;;;11.00;;
23394;SDS011;11870;53.084;18.206;2024-03-08T13:23:51;22.15;;;11.02;;
23394;SDS011;11870;53.084;18.206;2024-03-08T13:26:18;21.33;;;10.82;;
23394;SDS011;11870;53.084;18.206;2024-03-08T13:28:45;23.73;;;11.20;;
23394;SDS011;11870;53.084;18.206;2024-03-08T13:31:14;20.38;;;10.63;;
23394;SDS011;11870;53.084;18.206;2024-03-08T13:33:41;19.27;;;10.55;;
23394;SDS011;11870;53.084;18.206;2024-03-08T13:36:08;17.90;;;10.18;;
23394;SDS011;11870;53.084;18.206;2024-03-08T13:38:45;21.15;;;11.20;;
23394;SDS011;11870;53.084;18.206;2024-03-08T13:41:13;22.20;;;12.13;;
23394;SDS011;11870;53.084;18.206;2024-03-08T13:43:40;22.67;;;10.57;;
23394;SDS011;11870;53.084;18.206;2024-03-08T13:46:08;21.77;;;11.07;;
23394;SDS011;11870;53.084;18.206;2024-03-08T13:48:38;17.40;;;10.50;;
23394;SDS011;11870;53.084;18.206;2024-03-08T13:51:04;23.52;;;11.38;;
23394;SDS011;11870;53.084;18.206;2024-03-08T13:53:32;30.08;;;12.93;;
23394;SDS011;11870;53.084;18.206;2024-03-08T13:56:01;24.58;;;12.35;;
23394;SDS011;11870;53.084;18.206;2024-03-08T13:58:28;24.77;;;11.88;;
23394;SDS011;11870;53.084;18.206;2024-03-08T14:00:54;22.05;;;11.45;;
23394;SDS011;11870;53.084;18.206;2024-03-08T14:03:21;22.88;;;12.32;;
23394;SDS011;11870;53.084;18.206;2024-03-08T14:05:50;22.38;;;10.75;;
23394;SDS011;11870;53.084;18.206;2024-03-08T14:08:17;23.73;;;11.55;;
23394;SDS011;11870;53.084;18.206;2024-03-08T14:10:44;24.58;;;11.85;;
23394;SDS011;11870;53.084;18.206;2024-03-08T14:13:12;23.10;;;11.25;;
23394;SDS011;11870;53.084;18.206;2024-03-08T14:15:41;20.83;;;11.50;;
23394;SDS011;11870;53.084;18.206;2024-03-08T14:18:08;22.25;;;11.40;;
23394;SDS011;11870;53.084;18.206;2024-03-08T14:20:34;27.83;;;12.15;;
23394;SDS011;11870;53.084;18.206;2024-03-08T14:23:01;28.38;;;12.60;;
23394;SDS011;11870;53.084;18.206;2024-03-08T14:25:28;23.95;;;11.70;;
23394;SDS011;11870;53.084;18.206;2024-03-08T14:27:55;24.65;;;12.27;;